EGXW

RAF Waddington Airport

Waddington, United Kingdom
METAR EGXW 220350Z 25008KT CAVOK 03/02 Q1001 BLU
Observed Flight Rules
Jan-22 @ 03:50 UTC (22 minutes ago) Visual Flight Rules
Wind Visibility Clouds
250° at 8 knots 10,000+ meters
  • Clear skies
Temperatures Readings
Current 3°C / 37°F
Dewpoint 2°C / 36°F
Humidity 93%
Altimeter 29.56" Hg
Pressure 1000.92 hPa
Elevation 70
METAR EGXW 220350Z 25008KT CAVOK 03/02 Q1001 BLU
Observed Flight Rules
Jan-22 @ 03:50 UTC
(22 minutes ago)
VFR
Wind Visibility
250° at 8 knots 10,000+ meters
Clouds
  • Clear skies
Temperature Dewpoint
3°C / 37°F 2°C / 36°F
Humidity Altimeter Pressure
93% 29.56" Hg 1000.92 hPa